Time;durP1;ratioP1;P1;durP2;ratioP2;P2;SDS_P1;SDS_P2;PMS_P1;PMS_P2;Temp;Humidity;BMP_temperature;BMP_pressure;BME280_temperature;BME280_humidity;BME280_pressure;Samples;Min_cycle;Max_cycle;Signal;HPM_P1;HPM_P2
2020/12/20 00:02:04;;;;;;;16.85;10.98;;;;;;;22.04;42.16;95901.31;4925168;29;20027;-76
2020/12/20 00:04:29;;;;;;;16.73;11.23;;;;;;;22.04;42.20;95901.31;4946850;28;20035;-77
2020/12/20 00:06:55;;;;;;;18.55;11.20;;;;;;;22.01;42.34;95903.00;4958079;28;20035;-76
2020/12/20 00:09:21;;;;;;;15.50;10.93;;;;;;;21.96;42.38;95911.13;4956718;28;20135;-76
2020/12/20 00:11:48;;;;;;;17.60;11.32;;;;;;;21.93;42.32;95912.81;4941198;29;20057;-76
2020/12/20 00:14:28;;;;;;;17.13;11.23;;;;;;;21.98;42.21;95909.41;4943900;28;20031;-76
2020/12/20 00:16:55;;;;;;;15.00;10.52;;;;;;;21.92;42.47;95905.88;4914733;29;20035;-76
2020/12/20 00:19:21;;;;;;;16.98;10.73;;;;;;;21.83;42.28;95896.38;4942255;29;20035;-76
2020/12/20 00:21:46;;;;;;;18.45;11.15;;;;;;;21.90;42.63;95913.03;4942143;28;20027;-76
2020/12/20 00:24:12;;;;;;;15.60;10.27;;;;;;;21.89;41.95;95918.94;4957078;28;20529;-76
2020/12/20 00:26:41;;;;;;;15.88;10.48;;;;;;;21.79;42.35;95912.16;4942769;29;20031;-76
2020/12/20 00:29:07;;;;;;;16.80;10.57;;;;;;;21.84;42.46;95922.34;4926403;29;20028;-76
2020/12/20 00:31:32;;;;;;;16.60;10.60;;;;;;;21.84;42.21;95908.75;4942278;28;20055;-76
2020/12/20 00:33:58;;;;;;;17.83;10.80;;;;;;;21.79;42.60;95923.03;4943463;28;20031;-76
2020/12/20 00:36:23;;;;;;;15.80;10.63;;;;;;;21.80;42.44;95913.66;4958173;28;21445;-76
2020/12/20 00:38:48;;;;;;;17.30;11.10;;;;;;;21.76;42.41;95918.53;4958497;28;20105;-76
2020/12/20 00:41:14;;;;;;;15.95;10.52;;;;;;;21.81;42.40;95923.28;4958232;28;20058;-76
2020/12/20 00:43:39;;;;;;;15.80;10.95;;;;;;;21.75;42.43;95908.88;4958451;28;20460;-77
2020/12/20 00:46:05;;;;;;;15.82;10.88;;;;;;;21.72;42.34;95915.28;4942520;29;20034;-76
2020/12/20 00:48:30;;;;;;;16.50;10.40;;;;;;;21.66;42.41;95909.03;4922332;29;20035;-76
2020/12/20 00:50:56;;;;;;;16.15;10.10;;;;;;;21.71;42.49;95919.22;4942098;29;20640;-75
2020/12/20 00:53:21;;;;;;;15.43;10.02;;;;;;;21.73;42.34;95914.06;4944706;28;20039;-76
2020/12/20 00:55:50;;;;;;;15.63;10.02;;;;;;;21.71;42.36;95916.50;4945903;28;20102;-75
2020/12/20 00:58:15;;;;;;;13.98;9.68;;;;;;;21.67;42.38;95907.81;4942536;29;20090;-75
2020/12/20 01:00:40;;;;;;;16.45;10.10;;;;;;;21.66;42.73;95903.59;4926067;29;20028;-74
2020/12/20 01:03:06;;;;;;;16.40;10.60;;;;;;;21.66;42.44;95909.03;4948962;29;20031;-75
2020/12/20 01:05:31;;;;;;;15.73;10.13;;;;;;;21.69;42.41;95908.09;4928821;29;20560;-76
2020/12/20 01:07:57;;;;;;;16.73;10.27;;;;;;;21.65;42.53;95904.81;4942587;29;21655;-76
2020/12/20 01:10:22;;;;;;;15.18;10.20;;;;;;;21.61;42.53;95907.00;4943008;28;20087;-76
2020/12/20 01:12:48;;;;;;;14.73;9.25;;;;;;;21.66;42.17;95895.44;4942703;28;20094;-76
2020/12/20 01:15:13;;;;;;;14.43;9.45;;;;;;;21.61;42.36;95901.56;4925412;29;20028;-76
2020/12/20 01:17:39;;;;;;;15.63;10.13;;;;;;;21.55;42.67;95898.00;4925962;29;20042;-76
2020/12/20 01:20:04;;;;;;;14.52;9.82;;;;;;;21.54;42.54;95891.09;4957274;28;20555;-76
2020/12/20 01:22:33;;;;;;;13.55;9.57;;;;;;;21.57;42.65;95895.59;4941409;29;20023;-75
2020/12/20 01:24:58;;;;;;;14.93;9.20;;;;;;;21.54;42.48;95896.53;4942770;28;20058;-75
2020/12/20 01:27:24;;;;;;;15.05;10.07;;;;;;;21.58;42.43;95902.50;4941353;29;20027;-76
2020/12/20 01:29:49;;;;;;;15.18;9.95;;;;;;;21.50;42.67;95896.00;4942999;28;20102;-75
2020/12/20 01:32:17;;;;;;;15.77;10.73;;;;;;;21.51;42.50;95903.66;4941821;29;20023;-76
2020/12/20 01:34:44;;;;;;;15.00;9.85;;;;;;;21.52;42.50;95893.53;4941366;29;20031;-75
2020/12/20 01:37:09;;;;;;;13.77;9.85;;;;;;;21.47;42.59;95892.25;4941977;28;20518;-78
2020/12/20 01:39:35;;;;;;;15.07;9.75;;;;;;;21.50;42.61;95896.00;4941240;29;20046;-79
2020/12/20 01:42:00;;;;;;;13.95;9.07;;;;;;;21.54;42.60;95891.09;4942684;28;20484;-76
2020/12/20 01:44:26;;;;;;;14.77;9.75;;;;;;;21.45;42.38;95878.38;4943608;28;20113;-76
2020/12/20 01:46:51;;;;;;;14.65;9.73;;;;;;;21.49;42.46;95889.03;4946778;28;20028;-75
2020/12/20 01:49:17;;;;;;;14.93;9.48;;;;;;;21.46;42.39;95890.00;4944878;29;20041;-75
2020/12/20 01:51:42;;;;;;;12.73;8.38;;;;;;;21.47;42.41;95888.78;4944502;28;21120;-76
2020/12/20 01:54:09;;;;;;;13.05;9.50;;;;;;;21.44;42.57;95887.00;4944981;29;20035;-75
2020/12/20 01:56:34;;;;;;;13.93;8.65;;;;;;;21.41;42.66;95887.94;4943471;29;20112;-76
2020/12/20 01:59:00;;;;;;;12.75;8.90;;;;;;;21.41;42.68;95887.94;4960966;28;20057;-77
2020/12/20 02:01:26;;;;;;;13.88;8.73;;;;;;;21.43;42.61;95890.91;4960859;28;20031;-76
2020/12/20 02:03:51;;;;;;;13.02;9.00;;;;;;;21.40;42.53;95886.44;4960870;28;20051;-76
2020/12/20 02:06:17;;;;;;;13.60;8.73;;;;;;;21.34;42.59;95882.91;4944542;29;20476;-76
2020/12/20 02:08:42;;;;;;;13.27;8.48;;;;;;;21.41;42.68;95887.94;4928680;29;20038;-76
2020/12/20 02:11:08;;;;;;;11.48;7.88;;;;;;;21.38;42.62;95888.88;4944631;29;20086;-75
2020/12/20 02:13:34;;;;;;;13.48;8.88;;;;;;;21.39;42.54;95890.41;4945116;29;20134;-76
2020/12/20 02:15:59;;;;;;;13.95;9.05;;;;;;;21.36;42.66;95885.91;4960185;28;20114;-76
2020/12/20 02:18:25;;;;;;;13.30;8.77;;;;;;;21.35;42.83;95892.56;4945185;28;20036;-76
2020/12/20 02:20:52;;;;;;;12.25;8.88;;;;;;;21.31;42.65;95886.56;4944105;29;20034;-76
2020/12/20 02:23:17;;;;;;;12.68;8.90;;;;;;;21.33;42.53;95881.41;4941245;29;20547;-77
2020/12/20 02:25:43;;;;;;;14.40;9.32;;;;;;;21.28;42.66;95884.78;4943490;29;20110;-76
2020/12/20 02:28:08;;;;;;;13.10;8.95;;;;;;;21.31;42.69;95883.84;4944658;28;20047;-76
2020/12/20 02:30:34;;;;;;;12.80;9.07;;;;;;;21.27;42.87;95883.31;4959980;28;20023;-76
2020/12/20 02:32:59;;;;;;;12.93;8.27;;;;;;;21.25;42.60;95879.56;4947933;28;20118;-77
2020/12/20 02:35:25;;;;;;;13.02;8.75;;;;;;;21.27;42.70;95886.03;4944115;29;20034;-76
2020/12/20 02:37:51;;;;;;;12.05;8.45;;;;;;;21.25;42.47;95874.88;4960317;28;20031;-77
2020/12/20 02:40:16;;;;;;;13.23;8.80;;;;;;;21.25;42.87;95877.59;4959588;28;20085;-76
2020/12/20 02:42:41;;;;;;;13.73;8.63;;;;;;;21.27;42.72;95877.88;4924387;29;20129;-76
2020/12/20 02:45:07;;;;;;;13.35;8.55;;;;;;;21.28;42.75;95884.06;4946106;29;20047;-76
2020/12/20 02:47:32;;;;;;;12.68;7.97;;;;;;;21.27;42.38;95883.31;4944816;28;20027;-76
2020/12/20 02:49:58;;;;;;;11.68;8.30;;;;;;;21.23;42.49;95877.31;4944605;29;20051;-77
2020/12/20 02:52:23;;;;;;;12.93;8.15;;;;;;;;;;4945313;28;20042;-76
2020/12/20 02:54:48;;;;;;;12.23;7.70;;;;;;;21.18;42.55;95880.72;4943608;28;20031;-76
2020/12/20 02:57:14;;;;;;;12.25;8.48;;;;;;;21.17;42.59;95879.22;4959727;28;20027;-75
2020/12/20 02:59:39;;;;;;;12.02;8.75;;;;;;;21.21;42.71;95879.78;4960070;28;20038;-77
2020/12/20 03:02:05;;;;;;;12.45;7.68;;;;;;;21.19;42.65;95882.19;4959900;28;20579;-76
2020/12/20 03:04:30;;;;;;;11.60;8.10;;;;;;;21.20;42.60;95883.72;4943255;29;20752;-77
2020/12/20 03:06:56;;;;;;;13.45;8.10;;;;;;;21.17;42.75;95878.47;4944006;29;20039;-77
2020/12/20 03:09:21;;;;;;;12.68;8.27;;;;;;;21.18;42.76;95886.16;4944268;29;20031;-77
2020/12/20 03:11:47;;;;;;;13.27;8.65;;;;;;;21.20;42.65;95877.53;4926664;29;20027;-76
2020/12/20 03:14:12;;;;;;;14.13;8.35;;;;;;;21.19;42.61;95876.03;4948065;29;20035;-76
2020/12/20 03:16:38;;;;;;;13.80;7.82;;;;;;;21.16;42.77;95885.88;4931655;29;20027;-76
2020/12/20 03:19:03;;;;;;;10.85;7.90;;;;;;;21.17;42.55;95876.50;4963279;28;20496;-77
2020/12/20 03:21:28;;;;;;;11.70;7.65;;;;;;;21.16;42.55;95877.72;4960031;28;20406;-76
2020/12/20 03:24:00;;;;;;;13.23;8.45;;;;;;;21.17;42.65;95867.63;4925616;29;20050;-79
2020/12/20 03:26:25;;;;;;;11.60;7.93;;;;;;;21.12;42.72;95866.31;4958205;28;20023;-77
2020/12/20 03:28:51;;;;;;;12.65;8.00;;;;;;;21.13;42.61;95873.22;4943967;29;20512;-76
2020/12/20 03:31:16;;;;;;;12.30;8.15;;;;;;;21.13;42.87;95867.06;4940776;29;20035;-76
2020/12/20 03:33:42;;;;;;;12.55;8.07;;;;;;;21.11;42.63;95870.25;4935361;29;20043;-76
2020/12/20 03:36:07;;;;;;;10.80;7.10;;;;;;;21.14;42.74;95874.75;4948688;28;20038;-76
2020/12/20 03:38:33;;;;;;;12.30;7.78;;;;;;;21.16;42.71;95875.00;4945888;28;20035;-77
2020/12/20 03:40:58;;;;;;;11.50;7.38;;;;;;;21.09;42.83;95872.69;4944219;28;20065;-76
2020/12/20 03:43:23;;;;;;;11.50;8.13;;;;;;;21.11;42.65;95881.13;4944851;28;20039;-76
2020/12/20 03:45:49;;;;;;;12.38;8.05;;;;;;;21.08;42.63;95876.63;4944302;29;20038;-76
2020/12/20 03:48:14;;;;;;;11.63;7.57;;;;;;;21.06;42.71;95881.78;4943626;29;20090;-77
2020/12/20 03:50:40;;;;;;;12.00;7.70;;;;;;;21.14;42.90;95874.75;4942231;29;20503;-77
2020/12/20 03:53:05;;;;;;;11.40;7.53;;;;;;;21.23;42.78;95877.31;4926876;29;20106;-77
2020/12/20 03:55:31;;;;;;;10.68;7.57;;;;;;;21.29;42.61;95875.44;4938394;29;20035;-76
2020/12/20 03:57:56;;;;;;;11.43;7.47;;;;;;;21.35;42.52;95870.09;4943990;28;20047;-76
2020/12/20 04:00:22;;;;;;;10.40;7.18;;;;;;;21.40;42.44;95875.56;4942765;29;20046;-76
2020/12/20 04:02:48;;;;;;;11.27;7.35;;;;;;;21.41;42.46;95866.19;4943747;29;20030;-76
2020/12/20 04:05:14;;;;;;;10.55;7.40;;;;;;;21.43;42.42;95874.63;4958279;28;20488;-77
2020/12/20 04:07:41;;;;;;;10.20;6.90;;;;;;;21.48;42.38;95876.72;4923209;29;20023;-76
2020/12/20 04:10:08;;;;;;;9.85;6.85;;;;;;;21.51;42.34;95875.75;4944065;28;20041;-76
2020/12/20 04:12:33;;;;;;;10.25;6.63;;;;;;;21.52;42.35;95882.66;4958165;28;20031;-76
2020/12/20 04:14:59;;;;;;;10.82;7.57;;;;;;;21.55;42.62;95885.19;4943919;28;20038;-75
2020/12/20 04:17:24;;;;;;;10.27;6.57;;;;;;;21.49;42.24;95872.75;4943073;28;20023;-77
2020/12/20 04:19:50;;;;;;;10.40;6.65;;;;;;;21.55;42.25;95887.91;4958237;28;20058;-76
2020/12/20 04:22:15;;;;;;;10.15;6.95;;;;;;;21.60;42.09;95884.50;4941883;29;20027;-75
2020/12/20 04:24:41;;;;;;;10.98;6.47;;;;;;;21.61;42.17;95885.25;4943732;28;20504;-76
2020/12/20 04:27:06;;;;;;;10.50;6.75;;;;;;;21.62;42.00;95889.47;4943694;28;20034;-76
2020/12/20 04:29:31;;;;;;;10.48;6.90;;;;;;;21.62;41.98;95886.75;4942074;29;20043;-76
2020/12/20 04:31:57;;;;;;;9.20;6.47;;;;;;;21.64;42.11;95884.28;4943314;29;20070;-76
2020/12/20 04:34:22;;;;;;;10.90;6.82;;;;;;;21.65;41.93;95891.22;4942515;28;20046;-77
2020/12/20 04:36:48;;;;;;;10.85;6.82;;;;;;;21.66;42.02;95890.03;4943064;28;20034;-77
2020/12/20 04:39:13;;;;;;;10.95;7.10;;;;;;;21.69;41.98;95889.06;4943413;28;20035;-77
2020/12/20 04:41:39;;;;;;;10.60;7.05;;;;;;;21.70;41.83;95885.09;4943121;29;20031;-77
2020/12/20 04:44:04;;;;;;;9.77;6.63;;;;;;;21.70;42.07;95887.81;4942670;29;20427;-76
2020/12/20 04:46:30;;;;;;;10.23;6.25;;;;;;;21.72;41.97;95890.81;4924783;29;20031;-77
2020/12/20 04:48:55;;;;;;;9.82;7.15;;;;;;;21.72;41.87;95880.69;4958246;28;20043;-76
2020/12/20 04:51:21;;;;;;;10.35;6.90;;;;;;;21.73;42.10;95881.44;4925966;29;20515;-76
2020/12/20 04:53:46;;;;;;;9.55;6.72;;;;;;;21.74;41.97;95877.50;4942194;29;20463;-78
2020/12/20 04:56:12;;;;;;;9.43;6.13;;;;;;;21.76;41.89;95877.75;4940601;29;20035;-76
2020/12/20 04:58:38;;;;;;;10.05;6.53;;;;;;;21.77;41.93;95882.72;4925409;29;20032;-77
2020/12/20 05:01:04;;;;;;;10.77;6.85;;;;;;;21.79;41.91;95885.69;4941682;29;20035;-76
2020/12/20 05:03:29;;;;;;;9.98;6.65;;;;;;;21.80;41.80;95878.31;4957637;28;20035;-76
2020/12/20 05:05:55;;;;;;;9.15;6.05;;;;;;;21.77;41.80;95877.28;4955836;28;20035;-77
2020/12/20 05:08:21;;;;;;;10.60;6.75;;;;;;;21.76;41.96;95875.03;4956255;28;20028;-76
2020/12/20 05:10:46;;;;;;;9.30;6.28;;;;;;;21.79;41.88;95879.53;4925514;29;20532;-75
2020/12/20 05:13:12;;;;;;;9.30;6.30;;;;;;;21.83;41.78;95890.94;4942253;29;20035;-76
2020/12/20 05:15:37;;;;;;;8.73;6.50;;;;;;;21.84;41.69;95887.00;4941323;29;20027;-76
2020/12/20 05:18:07;;;;;;;10.98;7.22;;;;;;;21.85;41.70;95893.94;4941953;28;20039;-76
2020/12/20 05:20:40;;;;;;;10.18;6.63;;;;;;;21.87;41.64;95896.91;4944922;28;20059;-76
2020/12/20 05:23:06;;;;;;;10.25;6.50;;;;;;;21.88;41.80;95903.84;4946451;28;20035;-76
2020/12/20 05:25:31;;;;;;;12.32;7.20;;;;;;;21.90;41.70;95906.81;4946293;28;20122;-76
2020/12/20 05:28:04;;;;;;;9.93;6.25;;;;;;;21.88;41.75;95899.16;4946636;28;20114;-77
2020/12/20 05:30:30;;;;;;;9.48;6.50;;;;;;;21.91;41.63;95903.63;4935858;29;20205;-76
2020/12/20 05:32:55;;;;;;;9.60;6.35;;;;;;;21.91;41.51;95897.47;4946421;28;20435;-76
2020/12/20 05:35:21;;;;;;;10.68;6.80;;;;;;;21.93;41.54;95901.19;4944375;29;20452;-77
2020/12/20 05:37:46;;;;;;;10.57;6.57;;;;;;;21.94;41.53;95902.69;4945603;29;20126;-75
2020/12/20 05:40:32;;;;;;;11.25;7.00;;;;;;;21.95;41.62;95904.91;4948167;29;20504;-75
2020/12/20 05:43:03;;;;;;;10.10;6.50;;;;;;;21.94;41.81;95903.44;4945645;29;20039;-76
2020/12/20 05:45:29;;;;;;;;;;;;;;;21.95;41.65;95910.34;4945405;29;21835;-76
2020/12/20 05:47:54;;;;;;;10.18;6.70;;;;;;;21.94;41.68;95914.31;4942287;29;19922;-77
2020/12/20 05:50:20;;;;;;;11.07;6.32;;;;;;;21.96;41.70;95911.13;4928424;29;20035;-79
2020/12/20 05:53:05;;;;;;;10.07;6.32;;;;;;;21.96;41.89;95911.88;4928171;29;20027;-77
2020/12/20 05:55:38;;;;;;;10.63;6.47;;;;;;;22.00;41.73;95923.28;4944787;28;20035;-79
2020/12/20 05:58:10;;;;;;;9.70;6.10;;;;;;;22.02;41.62;95915.38;4942366;29;20519;-78
2020/12/20 06:00:36;;;;;;;9.57;6.05;;;;;;;22.05;41.75;95914.44;4945740;29;20054;-79
2020/12/20 06:03:02;;;;;;;9.57;6.10;;;;;;;22.08;41.51;95924.34;4945886;29;20027;-80
2020/12/20 06:05:31;;;;;;;10.45;6.25;;;;;;;22.10;41.67;95927.34;4960526;28;20027;-91
2020/12/20 06:07:57;;;;;;;10.40;7.20;;;;;;;22.22;41.36;95926.25;4961939;28;20035;-89
2020/12/20 06:10:22;;;;;;;9.02;6.40;;;;;;;22.28;41.51;95927.06;4943494;29;20039;-85
2020/12/20 06:12:48;;;;;;;9.38;6.70;;;;;;;22.32;41.36;95933.03;4933013;29;20023;-84
2020/12/20 06:15:14;;;;;;;10.40;6.35;;;;;;;22.36;40.96;95933.59;4946824;29;20031;-89
2020/12/20 06:17:43;;;;;;;12.82;6.47;;;;;;;22.49;41.28;95933.94;4925909;29;20103;-76
2020/12/20 06:20:08;;;;;;;15.30;5.90;;;;;;;22.51;40.99;95923.31;4943409;28;20086;-78
2020/12/20 06:22:34;;;;;;;10.77;6.50;;;;;;;22.63;40.93;95919.47;4933882;29;20020;-82
2020/12/20 06:25:04;;;;;;;10.18;6.35;;;;;;;22.68;40.78;95929.69;4945821;29;20582;-80
2020/12/20 06:27:31;;;;;;;9.45;5.78;;;;;;;22.73;40.53;95923.50;4929674;29;20110;-84
2020/12/20 06:29:57;;;;;;;8.95;6.00;;;;;;;22.81;40.83;95930.00;4931337;29;20063;-80
2020/12/20 06:32:35;;;;;;;10.25;6.25;;;;;;;22.84;40.57;95934.50;4960941;28;20039;-81
2020/12/20 06:35:19;;;;;;;9.63;6.07;;;;;;;22.93;40.49;95933.13;4918044;29;20116;-85
2020/12/20 06:37:47;;;;;;;9.13;5.78;;;;;;;22.92;39.90;95931.59;4962236;28;20098;-85
2020/12/20 06:40:13;;;;;;;9.55;6.25;;;;;;;23.05;40.17;95940.16;4944847;29;20038;-85
2020/12/20 06:42:42;;;;;;;9.48;6.40;;;;;;;23.12;40.30;95945.16;4946730;28;20158;-81
2020/12/20 06:45:18;;;;;;;10.37;6.63;;;;;;;23.08;39.77;95922.84;4945050;28;20035;-84
2020/12/20 06:47:49;;;;;;;9.27;6.05;;;;;;;23.20;39.73;95929.09;4932056;29;20837;-86
2020/12/20 06:50:44;;;;;;;10.63;5.78;;;;;;;23.30;39.74;95944.75;4929501;29;20500;-79
2020/12/20 06:53:10;;;;;;;9.70;5.95;;;;;;;23.38;39.93;95956.72;4945148;29;20118;-80
2020/12/20 06:55:36;;;;;;;9.27;6.25;;;;;;;23.42;39.40;95940.88;4928054;29;20039;-79
2020/12/20 06:58:04;;;;;;;9.27;6.00;;;;;;;23.52;38.99;95950.34;4946465;29;20423;-82
2020/12/20 07:00:49;;;;;;;9.50;5.90;;;;;;;23.52;39.47;95945.66;4949018;29;20169;-84
2020/12/20 07:03:21;;;;;;;8.60;5.63;;;;;;;23.62;39.28;95951.66;4934295;29;20035;-79
2020/12/20 07:05:48;;;;;;;9.18;5.85;;;;;;;23.66;39.45;95960.38;4953868;28;20042;-82
2020/12/20 07:08:27;;;;;;;8.38;6.03;;;;;;;23.69;38.76;95948.50;4960608;28;20028;-80
2020/12/20 07:10:53;;;;;;;8.55;5.72;;;;;;;23.73;38.89;95949.00;4945108;28;20113;-81
2020/12/20 07:13:34;;;;;;;8.45;5.60;;;;;;;23.76;39.07;95954.22;4945195;28;20019;-82
2020/12/20 07:16:06;;;;;;;11.85;6.65;;;;;;;23.81;38.57;95960.94;4946030;28;20035;-78
2020/12/20 07:18:44;;;;;;;9.70;6.38;;;;;;;23.78;39.08;95951.00;4945135;28;20027;-77
2020/12/20 07:21:19;;;;;;;10.02;6.20;;;;;;;23.90;39.02;95954.06;4930158;29;20118;-81
2020/12/20 07:24:18;;;;;;;9.43;6.10;;;;;;;23.93;38.43;95958.53;4958837;28;20592;-82
2020/12/20 07:26:44;;;;;;;10.18;5.93;;;;;;;23.95;38.92;95960.78;4954610;28;20070;-79
2020/12/20 07:29:09;;;;;;;10.38;6.50;;;;;;;23.96;38.76;95954.81;4928482;29;20054;-82
2020/12/20 07:31:35;;;;;;;8.80;6.05;;;;;;;23.96;39.51;95956.78;4960066;28;20059;-82
2020/12/20 07:34:01;;;;;;;10.38;6.75;;;;;;;23.97;39.32;95947.38;4942584;28;20046;-82
2020/12/20 07:36:26;;;;;;;9.00;6.05;;;;;;;24.02;39.79;95950.13;4960330;28;20113;-86
2020/12/20 07:38:52;;;;;;;9.25;6.15;;;;;;;24.05;40.19;95949.16;4927746;29;20576;-80
2020/12/20 07:41:18;;;;;;;8.95;6.07;;;;;;;24.00;40.14;95947.13;4943301;29;20035;-80
2020/12/20 07:43:44;;;;;;;9.43;5.90;;;;;;;24.10;39.50;95955.88;4941955;29;20042;-79
2020/12/20 07:46:10;;;;;;;11.85;6.90;;;;;;;24.12;40.17;95948.66;4933202;29;20035;-80
2020/12/20 07:48:36;;;;;;;10.40;6.60;;;;;;;24.18;39.84;95956.88;4944660;29;20059;-81
2020/12/20 07:51:19;;;;;;;10.25;6.80;;;;;;;24.19;40.00;95953.66;4930779;29;20097;-83
2020/12/20 07:53:55;;;;;;;9.45;5.70;;;;;;;24.24;39.86;95961.09;4915214;29;20110;-81
2020/12/20 07:56:44;;;;;;;10.55;6.13;;;;;;;24.25;40.06;95957.16;4947089;28;20035;-78
2020/12/20 07:59:12;;;;;;;12.00;6.45;;;;;;;24.23;40.82;95948.72;4945219;29;20078;-79
2020/12/20 08:01:38;;;;;;;10.85;5.80;;;;;;;24.23;40.15;95947.94;4961990;28;20130;-80
2020/12/20 08:04:14;;;;;;;9.20;6.25;;;;;;;24.28;40.22;95950.72;4944548;29;20093;-78
2020/12/20 08:06:46;;;;;;;9.25;5.80;;;;;;;24.24;40.39;95950.19;4928393;29;20102;-79
2020/12/20 08:09:16;;;;;;;11.27;6.65;;;;;;;24.36;40.08;95957.19;4928488;28;20035;-79
2020/12/20 08:11:42;;;;;;;9.30;6.18;;;;;;;24.33;40.15;95947.25;4927618;29;20090;-82
2020/12/20 08:14:14;;;;;;;11.52;6.57;;;;;;;24.32;40.10;95948.50;4914027;29;20066;-83
2020/12/20 08:16:41;;;;;;;11.70;6.40;;;;;;;24.38;40.34;95960.22;4942944;28;20028;-80
2020/12/20 08:19:08;;;;;;;10.68;6.10;;;;;;;24.36;40.39;95954.47;4929962;29;20027;-83
2020/12/20 08:21:52;;;;;;;13.40;6.95;;;;;;;24.41;40.24;95964.69;4925571;29;20436;-82
2020/12/20 08:24:18;;;;;;;9.48;6.05;;;;;;;24.41;40.00;95956.50;4944445;29;20043;-80
2020/12/20 08:26:44;;;;;;;10.43;5.95;;;;;;;24.44;40.15;95960.97;4943645;29;20030;-80
2020/12/20 08:29:16;;;;;;;10.48;6.45;;;;;;;24.37;40.34;95958.69;4942924;29;20039;-81
2020/12/20 08:31:41;;;;;;;9.57;6.47;;;;;;;24.36;39.77;95951.75;4945376;28;20453;-80
2020/12/20 08:34:23;;;;;;;8.50;5.60;;;;;;;24.50;40.31;95961.72;4944029;28;20027;-81
2020/12/20 08:36:52;;;;;;;9.98;6.38;;;;;;;24.49;39.96;95960.22;4955226;28;20051;-82
2020/12/20 08:39:24;;;;;;;10.32;6.70;;;;;;;24.52;40.17;95953.78;4960180;28;20042;-82
2020/12/20 08:42:03;;;;;;;10.52;6.20;;;;;;;24.56;39.63;95954.28;4929297;29;20489;-78
2020/12/20 08:44:28;;;;;;;9.45;5.78;;;;;;;24.54;40.33;95945.81;4942945;29;20042;-80
2020/12/20 08:47:11;;;;;;;11.00;6.50;;;;;;;24.64;40.04;95945.09;4927423;29;20032;-82
2020/12/20 08:49:38;;;;;;;11.35;6.30;;;;;;;24.54;40.13;95951.28;4942081;29;20040;-82
2020/12/20 08:52:13;;;;;;;9.15;6.28;;;;;;;24.56;40.32;95959.75;4927458;29;20028;-81
2020/12/20 08:54:39;;;;;;;10.27;6.63;;;;;;;24.56;40.58;95959.75;4945164;28;20423;-82
2020/12/20 08:57:06;;;;;;;10.82;6.50;;;;;;;24.62;40.27;95965.94;4945985;29;20110;-81
2020/12/20 08:59:36;;;;;;;10.00;6.10;;;;;;;24.65;40.26;95954.03;4949191;28;20175;-79
2020/12/20 09:02:02;;;;;;;9.10;6.30;;;;;;;24.65;40.71;95945.81;4930428;29;20046;-81
2020/12/20 09:04:28;;;;;;;9.95;6.22;;;;;;;24.69;40.77;95954.53;4944629;29;20042;-82
2020/12/20 09:06:58;;;;;;;9.50;6.47;;;;;;;24.66;40.44;95952.78;4946197;29;20484;-81
2020/12/20 09:09:24;;;;;;;9.80;5.80;;;;;;;24.63;40.56;95948.31;4961498;28;20040;-80
2020/12/20 09:11:50;;;;;;;9.88;6.00;;;;;;;24.57;40.73;95947.56;4946795;28;20393;-80
2020/12/20 09:14:15;;;;;;;9.95;6.03;;;;;;;24.64;40.82;95955.28;4946114;29;20039;-82
2020/12/20 09:16:44;;;;;;;9.98;6.50;;;;;;;24.57;40.95;95939.38;4931057;29;20488;-80
2020/12/20 09:19:11;;;;;;;9.40;6.03;;;;;;;24.65;41.05;95945.81;4945968;28;20046;-81
2020/12/20 09:21:36;;;;;;;9.93;6.10;;;;;;;24.71;40.38;95954.78;4929686;29;20026;-81
2020/12/20 09:24:02;;;;;;;10.35;6.30;;;;;;;24.67;40.40;95944.09;4929702;29;20047;-81
2020/12/20 09:26:27;;;;;;;10.05;6.20;;;;;;;24.65;40.66;95940.38;4961235;28;20027;-81
2020/12/20 09:28:53;;;;;;;9.23;6.20;;;;;;;24.72;40.82;95942.63;4945122;28;20035;-80
2020/12/20 09:31:20;;;;;;;9.75;6.00;;;;;;;24.74;40.79;95942.84;4939050;28;20027;-81
2020/12/20 09:33:49;;;;;;;9.82;6.25;;;;;;;24.72;40.67;95939.88;4946635;28;20093;-81
2020/12/20 09:36:21;;;;;;;9.47;6.10;;;;;;;24.75;40.87;95933.44;4926099;29;20110;-81
2020/12/20 09:38:54;;;;;;;9.48;6.15;;;;;;;24.73;41.16;95935.91;4946220;29;20035;-80
2020/12/20 09:41:24;;;;;;;9.07;5.88;;;;;;;24.72;40.89;95937.88;4945975;28;20114;-79
2020/12/20 09:43:50;;;;;;;;;;;;;;;24.67;40.84;95926.97;4949417;28;20037;-78
2020/12/20 09:46:29;;;;;;;9.07;5.63;;;;;;;24.75;40.70;95936.91;4944657;28;19922;-78
2020/12/20 09:48:55;;;;;;;9.48;6.38;;;;;;;24.76;40.94;95927.47;4930688;29;20031;-81
2020/12/20 09:51:21;;;;;;;10.02;5.82;;;;;;;24.78;40.70;95921.50;4958988;28;20038;-84
2020/12/20 09:53:47;;;;;;;9.52;5.93;;;;;;;24.77;40.75;95922.75;4945809;29;20122;-77
2020/12/20 09:56:13;;;;;;;9.45;5.90;;;;;;;24.76;40.91;95938.41;4947018;28;20138;-82
2020/12/20 09:58:39;;;;;;;10.68;6.25;;;;;;;24.77;41.00;95925.47;4943966;29;20039;-80
2020/12/20 10:01:05;;;;;;;10.98;6.15;;;;;;;24.76;40.94;95934.94;4945626;29;20031;-83
2020/12/20 10:03:30;;;;;;;10.98;6.43;;;;;;;24.73;40.78;95930.47;4947119;28;20035;-82
2020/12/20 10:05:56;;;;;;;8.52;6.05;;;;;;;24.79;40.73;95933.94;4959880;28;20492;-81
2020/12/20 10:08:23;;;;;;;9.52;6.00;;;;;;;24.77;40.65;95925.47;4945846;29;20036;-82
2020/12/20 10:10:50;;;;;;;10.85;6.10;;;;;;;24.81;40.80;95920.53;4950486;28;20035;-80
2020/12/20 10:13:16;;;;;;;9.63;6.43;;;;;;;24.78;40.63;95916.03;4929866;29;20031;-79
2020/12/20 10:15:42;;;;;;;9.18;5.97;;;;;;;24.79;40.44;95923.75;4929999;29;20419;-80
2020/12/20 10:18:07;;;;;;;9.80;6.07;;;;;;;24.82;40.44;95923.50;4946984;28;20042;-81
2020/12/20 10:20:33;;;;;;;9.43;5.72;;;;;;;24.85;40.48;95922.50;4947148;29;20035;-78
2020/12/20 10:22:59;;;;;;;10.38;6.22;;;;;;;24.87;40.11;95919.28;4948289;28;20114;-79
2020/12/20 10:25:24;;;;;;;11.35;5.97;;;;;;;24.97;40.03;95913.06;4947429;28;20504;-77
2020/12/20 10:27:52;;;;;;;9.10;5.57;;;;;;;24.98;39.89;95914.56;4928778;29;20034;-78
2020/12/20 10:30:17;;;;;;;9.88;6.03;;;;;;;25.06;39.37;95914.81;4944185;28;20035;-78
2020/12/20 10:32:43;;;;;;;8.43;5.85;;;;;;;25.07;39.14;95900.66;4944833;29;21559;-79
2020/12/20 10:35:08;;;;;;;10.13;6.43;;;;;;;25.04;39.36;95901.66;4942877;29;20040;-83
2020/12/20 10:37:33;;;;;;;9.18;5.68;;;;;;;25.06;39.06;95899.16;4944949;28;20031;-81
2020/12/20 10:39:59;;;;;;;9.15;5.75;;;;;;;25.05;39.28;95908.63;4927277;29;20090;-79
2020/12/20 10:42:24;;;;;;;9.90;6.45;;;;;;;25.07;38.98;95911.59;4944339;29;20082;-80
2020/12/20 10:44:50;;;;;;;8.50;5.30;;;;;;;25.08;39.17;95906.88;4926793;29;21342;-82
2020/12/20 10:47:15;;;;;;;10.68;6.20;;;;;;;25.06;38.91;95901.91;4960529;28;20519;-76
2020/12/20 10:49:41;;;;;;;10.48;6.13;;;;;;;25.11;38.65;95911.34;4942768;29;20101;-78
2020/12/20 10:52:06;;;;;;;8.80;6.28;;;;;;;25.09;38.78;95900.91;4944730;28;20031;-78
2020/12/20 10:54:32;;;;;;;9.77;6.50;;;;;;;25.08;38.48;95907.63;4944088;29;20488;-77
2020/12/20 10:57:01;;;;;;;9.93;6.05;;;;;;;25.04;38.53;95895.47;4959447;28;20713;-77
2020/12/20 10:59:30;;;;;;;10.63;6.10;;;;;;;25.08;38.95;95896.69;4943988;29;20039;-77
2020/12/20 11:01:56;;;;;;;8.77;5.80;;;;;;;25.06;38.56;95898.44;4945030;28;20039;-78
2020/12/20 11:04:22;;;;;;;9.45;6.22;;;;;;;25.08;38.88;95896.69;4943144;28;20031;-79
2020/12/20 11:06:47;;;;;;;9.63;6.28;;;;;;;25.05;38.71;95892.22;4938660;28;20030;-79
2020/12/20 11:09:12;;;;;;;10.27;6.03;;;;;;;25.07;38.78;95897.94;4958192;28;20039;-78
2020/12/20 11:11:38;;;;;;;9.73;5.90;;;;;;;25.00;38.68;95890.22;4962886;28;20819;-79
2020/12/20 11:14:03;;;;;;;10.38;6.47;;;;;;;25.00;38.46;95890.22;4943440;29;20531;-80
2020/12/20 11:16:29;;;;;;;14.48;9.35;;;;;;;24.59;34.52;95893.22;4928884;29;20090;-80
2020/12/20 11:18:54;;;;;;;20.13;13.80;;;;;;;23.42;34.97;95886.34;4943684;29;20043;-81
2020/12/20 11:21:20;;;;;;;19.13;12.35;;;;;;;23.86;37.40;95894.78;4943966;29;20031;-81
2020/12/20 11:23:46;;;;;;;15.80;8.88;;;;;;;24.28;37.87;95901.56;4942961;29;20043;-79
2020/12/20 11:26:19;;;;;;;11.38;7.55;;;;;;;24.46;37.94;95884.75;4960338;28;20035;-79
2020/12/20 11:28:48;;;;;;;11.32;7.38;;;;;;;24.71;37.63;95895.44;4944281;29;20484;-79